sensor_id;sensor_type;location;lat;lon;timestamp;temperature;humidity
25208;DHT22;13153;52.316;21.166;2023-05-16T00:00:52;13.00;99.90
25208;DHT22;13153;52.316;21.166;2023-05-16T00:03:19;13.00;99.90
25208;DHT22;13153;52.316;21.166;2023-05-16T00:05:45;13.00;99.90
25208;DHT22;13153;52.316;21.166;2023-05-16T00:08:11;13.00;99.90
25208;DHT22;13153;52.316;21.166;2023-05-16T00:10:37;13.00;99.90
25208;DHT22;13153;52.316;21.166;2023-05-16T00:13:21;12.90;99.90
25208;DHT22;13153;52.316;21.166;2023-05-16T00:15:50;12.90;99.90
25208;DHT22;13153;52.316;21.166;2023-05-16T00:18:17;12.90;99.90
25208;DHT22;13153;52.316;21.166;2023-05-16T00:20:44;12.80;99.90
25208;DHT22;13153;52.316;21.166;2023-05-16T00:23:10;12.80;99.90
25208;DHT22;13153;52.316;21.166;2023-05-16T00:25:37;12.80;99.90
25208;DHT22;13153;52.316;21.166;2023-05-16T00:28:03;12.80;99.90
25208;DHT22;13153;52.316;21.166;2023-05-16T00:30:28;12.80;99.90
25208;DHT22;13153;52.316;21.166;2023-05-16T00:32:54;12.80;99.90
25208;DHT22;13153;52.316;21.166;2023-05-16T00:35:20;12.80;99.90
25208;DHT22;13153;52.316;21.166;2023-05-16T00:37:46;12.80;99.90
25208;DHT22;13153;52.316;21.166;2023-05-16T00:40:12;12.80;99.90
25208;DHT22;13153;52.316;21.166;2023-05-16T00:42:38;12.90;99.90
25208;DHT22;13153;52.316;21.166;2023-05-16T00:45:05;12.90;99.90
25208;DHT22;13153;52.316;21.166;2023-05-16T00:47:31;12.90;99.90
25208;DHT22;13153;52.316;21.166;2023-05-16T00:49:57;12.90;99.90
25208;DHT22;13153;52.316;21.166;2023-05-16T00:52:23;12.90;99.90
25208;DHT22;13153;52.316;21.166;2023-05-16T00:54:50;12.90;99.90
25208;DHT22;13153;52.316;21.166;2023-05-16T00:57:17;12.90;99.90
25208;DHT22;13153;52.316;21.166;2023-05-16T00:59:45;12.90;99.90
25208;DHT22;13153;52.316;21.166;2023-05-16T01:02:12;12.90;99.90
25208;DHT22;13153;52.316;21.166;2023-05-16T01:04:38;12.80;99.90
25208;DHT22;13153;52.316;21.166;2023-05-16T01:07:05;12.80;99.90
25208;DHT22;13153;52.316;21.166;2023-05-16T01:09:31;12.80;99.90
25208;DHT22;13153;52.316;21.166;2023-05-16T01:12:51;12.80;99.90
25208;DHT22;13153;52.316;21.166;2023-05-16T01:15:24;12.80;99.90
25208;DHT22;13153;52.316;21.166;2023-05-16T01:18:07;12.80;99.90
25208;DHT22;13153;52.316;21.166;2023-05-16T01:20:58;12.80;99.90
25208;DHT22;13153;52.316;21.166;2023-05-16T01:26:28;12.90;99.90
25208;DHT22;13153;52.316;21.166;2023-05-16T01:28:56;12.90;99.90
25208;DHT22;13153;52.316;21.166;2023-05-16T01:31:23;12.90;99.90
25208;DHT22;13153;52.316;21.166;2023-05-16T01:33:49;12.90;99.90
25208;DHT22;13153;52.316;21.166;2023-05-16T01:36:32;12.90;99.90
25208;DHT22;13153;52.316;21.166;2023-05-16T01:39:05;12.90;99.90
25208;DHT22;13153;52.316;21.166;2023-05-16T01:42:04;12.90;99.90
25208;DHT22;13153;52.316;21.166;2023-05-16T01:47:24;12.90;99.90
25208;DHT22;13153;52.316;21.166;2023-05-16T01:50:21;12.90;99.90
25208;DHT22;13153;52.316;21.166;2023-05-16T01:52:59;12.90;99.90
25208;DHT22;13153;52.316;21.166;2023-05-16T01:55:42;12.90;99.90
25208;DHT22;13153;52.316;21.166;2023-05-16T01:58:20;12.90;99.90
25208;DHT22;13153;52.316;21.166;2023-05-16T02:00:48;12.90;99.90
25208;DHT22;13153;52.316;21.166;2023-05-16T02:03:13;13.00;99.90
25208;DHT22;13153;52.316;21.166;2023-05-16T02:05:39;13.00;99.90
25208;DHT22;13153;52.316;21.166;2023-05-16T02:08:06;13.00;99.90
25208;DHT22;13153;52.316;21.166;2023-05-16T02:10:33;13.00;99.90
25208;DHT22;13153;52.316;21.166;2023-05-16T02:12:58;13.00;99.90
25208;DHT22;13153;52.316;21.166;2023-05-16T02:15:24;13.00;99.90
25208;DHT22;13153;52.316;21.166;2023-05-16T02:17:50;13.00;99.90
25208;DHT22;13153;52.316;21.166;2023-05-16T02:20:16;13.00;99.90
25208;DHT22;13153;52.316;21.166;2023-05-16T02:22:41;13.00;99.90
25208;DHT22;13153;52.316;21.166;2023-05-16T02:25:09;13.00;99.90
25208;DHT22;13153;52.316;21.166;2023-05-16T02:27:35;13.00;99.90
25208;DHT22;13153;52.316;21.166;2023-05-16T02:30:01;13.00;99.90
25208;DHT22;13153;52.316;21.166;2023-05-16T02:32:27;13.00;99.90
25208;DHT22;13153;52.316;21.166;2023-05-16T02:34:52;13.10;99.90
25208;DHT22;13153;52.316;21.166;2023-05-16T02:37:18;13.00;99.90
25208;DHT22;13153;52.316;21.166;2023-05-16T02:39:44;13.10;99.90
25208;DHT22;13153;52.316;21.166;2023-05-16T02:42:10;13.00;99.90
25208;DHT22;13153;52.316;21.166;2023-05-16T02:44:36;13.00;99.90
25208;DHT22;13153;52.316;21.166;2023-05-16T02:47:02;13.00;99.90
25208;DHT22;13153;52.316;21.166;2023-05-16T02:49:27;13.00;99.90
25208;DHT22;13153;52.316;21.166;2023-05-16T02:51:53;13.00;99.90
25208;DHT22;13153;52.316;21.166;2023-05-16T02:54:19;13.00;99.90
25208;DHT22;13153;52.316;21.166;2023-05-16T02:56:45;13.00;99.90
25208;DHT22;13153;52.316;21.166;2023-05-16T02:59:12;13.00;99.90
25208;DHT22;13153;52.316;21.166;2023-05-16T03:01:38;13.00;99.90
25208;DHT22;13153;52.316;21.166;2023-05-16T03:04:04;13.00;99.90
25208;DHT22;13153;52.316;21.166;2023-05-16T03:06:30;13.00;99.90
25208;DHT22;13153;52.316;21.166;2023-05-16T03:08:56;13.00;99.90
25208;DHT22;13153;52.316;21.166;2023-05-16T03:11:22;12.90;99.90
25208;DHT22;13153;52.316;21.166;2023-05-16T03:13:49;13.00;99.90
25208;DHT22;13153;52.316;21.166;2023-05-16T03:16:15;13.00;99.90
25208;DHT22;13153;52.316;21.166;2023-05-16T03:18:41;13.00;99.90
25208;DHT22;13153;52.316;21.166;2023-05-16T03:21:07;13.00;99.90
25208;DHT22;13153;52.316;21.166;2023-05-16T03:23:33;13.00;99.90
25208;DHT22;13153;52.316;21.166;2023-05-16T03:25:59;13.10;99.90
25208;DHT22;13153;52.316;21.166;2023-05-16T03:28:26;13.10;99.90
25208;DHT22;13153;52.316;21.166;2023-05-16T03:30:51;13.30;99.90
25208;DHT22;13153;52.316;21.166;2023-05-16T03:33:17;13.50;99.90
25208;DHT22;13153;52.316;21.166;2023-05-16T03:35:43;13.90;99.90
25208;DHT22;13153;52.316;21.166;2023-05-16T03:38:10;14.30;99.90
25208;DHT22;13153;52.316;21.166;2023-05-16T03:40:36;14.60;99.90
25208;DHT22;13153;52.316;21.166;2023-05-16T03:43:02;15.00;99.90
25208;DHT22;13153;52.316;21.166;2023-05-16T03:45:29;15.20;99.90
25208;DHT22;13153;52.316;21.166;2023-05-16T03:47:55;15.60;99.90
25208;DHT22;13153;52.316;21.166;2023-05-16T03:50:21;15.80;99.90
25208;DHT22;13153;52.316;21.166;2023-05-16T03:52:47;16.10;99.90
25208;DHT22;13153;52.316;21.166;2023-05-16T03:55:13;16.30;99.90
25208;DHT22;13153;52.316;21.166;2023-05-16T03:57:40;16.60;99.90
25208;DHT22;13153;52.316;21.166;2023-05-16T04:00:07;16.90;99.90
25208;DHT22;13153;52.316;21.166;2023-05-16T04:02:35;17.20;99.90
25208;DHT22;13153;52.316;21.166;2023-05-16T04:05:01;17.40;99.90
25208;DHT22;13153;52.316;21.166;2023-05-16T04:07:27;17.70;99.90
25208;DHT22;13153;52.316;21.166;2023-05-16T04:09:54;17.90;99.90
25208;DHT22;13153;52.316;21.166;2023-05-16T04:12:20;18.10;99.90
25208;DHT22;13153;52.316;21.166;2023-05-16T04:14:47;18.40;99.90
25208;DHT22;13153;52.316;21.166;2023-05-16T04:17:13;18.70;99.90
25208;DHT22;13153;52.316;21.166;2023-05-16T04:19:39;19.00;99.90
25208;DHT22;13153;52.316;21.166;2023-05-16T04:22:05;19.40;99.90
25208;DHT22;13153;52.316;21.166;2023-05-16T04:24:32;19.70;99.90
25208;DHT22;13153;52.316;21.166;2023-05-16T04:26:58;20.20;99.90
25208;DHT22;13153;52.316;21.166;2023-05-16T04:29:24;20.50;99.90
25208;DHT22;13153;52.316;21.166;2023-05-16T04:31:50;21.00;99.90
25208;DHT22;13153;52.316;21.166;2023-05-16T04:34:16;21.50;99.90
25208;DHT22;13153;52.316;21.166;2023-05-16T04:36:42;21.90;99.90
25208;DHT22;13153;52.316;21.166;2023-05-16T04:39:08;22.40;99.90
25208;DHT22;13153;52.316;21.166;2023-05-16T04:41:33;22.70;99.90
25208;DHT22;13153;52.316;21.166;2023-05-16T04:44:01;23.20;99.90
25208;DHT22;13153;52.316;21.166;2023-05-16T04:46:29;23.50;99.90
25208;DHT22;13153;52.316;21.166;2023-05-16T04:48:55;23.90;99.90
25208;DHT22;13153;52.316;21.166;2023-05-16T04:51:21;24.40;99.90
25208;DHT22;13153;52.316;21.166;2023-05-16T04:53:47;25.20;99.90
25208;DHT22;13153;52.316;21.166;2023-05-16T04:56:13;25.90;96.80
25208;DHT22;13153;52.316;21.166;2023-05-16T04:58:39;26.50;92.60
25208;DHT22;13153;52.316;21.166;2023-05-16T05:01:04;27.30;88.40
25208;DHT22;13153;52.316;21.166;2023-05-16T05:03:31;27.90;83.70
25208;DHT22;13153;52.316;21.166;2023-05-16T05:05:56;28.50;77.10
25208;DHT22;13153;52.316;21.166;2023-05-16T05:08:22;29.10;75.40
25208;DHT22;13153;52.316;21.166;2023-05-16T05:10:48;29.50;71.40
25208;DHT22;13153;52.316;21.166;2023-05-16T05:13:14;30.10;67.70
25208;DHT22;13153;52.316;21.166;2023-05-16T05:15:39;30.20;67.20
25208;DHT22;13153;52.316;21.166;2023-05-16T05:18:05;29.90;64.50
25208;DHT22;13153;52.316;21.166;2023-05-16T05:20:31;28.40;67.90
25208;DHT22;13153;52.316;21.166;2023-05-16T05:22:57;27.20;72.30
25208;DHT22;13153;52.316;21.166;2023-05-16T05:25:22;25.80;76.70
25208;DHT22;13153;52.316;21.166;2023-05-16T05:27:48;24.20;85.20
25208;DHT22;13153;52.316;21.166;2023-05-16T05:30:14;22.90;99.90
25208;DHT22;13153;52.316;21.166;2023-05-16T05:32:40;22.20;99.90
25208;DHT22;13153;52.316;21.166;2023-05-16T05:35:06;21.50;99.90
25208;DHT22;13153;52.316;21.166;2023-05-16T05:37:32;21.60;99.90
25208;DHT22;13153;52.316;21.166;2023-05-16T05:39:58;21.50;99.90
25208;DHT22;13153;52.316;21.166;2023-05-16T05:42:24;21.30;99.90
25208;DHT22;13153;52.316;21.166;2023-05-16T05:44:50;21.30;99.90
25208;DHT22;13153;52.316;21.166;2023-05-16T05:47:16;21.30;99.90
25208;DHT22;13153;52.316;21.166;2023-05-16T05:49:42;21.30;99.90
25208;DHT22;13153;52.316;21.166;2023-05-16T05:52:08;21.20;99.90
25208;DHT22;13153;52.316;21.166;2023-05-16T05:54:33;21.50;99.90
25208;DHT22;13153;52.316;21.166;2023-05-16T05:56:59;21.50;99.90
25208;DHT22;13153;52.316;21.166;2023-05-16T05:59:25;21.40;99.90
25208;DHT22;13153;52.316;21.166;2023-05-16T06:01:52;21.40;99.90
25208;DHT22;13153;52.316;21.166;2023-05-16T06:04:18;21.50;99.90
25208;DHT22;13153;52.316;21.166;2023-05-16T06:06:45;21.30;99.90
25208;DHT22;13153;52.316;21.166;2023-05-16T06:09:11;20.90;99.90
25208;DHT22;13153;52.316;21.166;2023-05-16T06:11:38;20.30;99.90
25208;DHT22;13153;52.316;21.166;2023-05-16T06:14:04;19.70;99.90
25208;DHT22;13153;52.316;21.166;2023-05-16T06:16:30;19.00;99.90
25208;DHT22;13153;52.316;21.166;2023-05-16T06:18:56;18.60;99.90
25208;DHT22;13153;52.316;21.166;2023-05-16T06:21:22;18.30;99.90
25208;DHT22;13153;52.316;21.166;2023-05-16T06:23:47;17.90;99.90
25208;DHT22;13153;52.316;21.166;2023-05-16T06:26:13;17.60;99.90
25208;DHT22;13153;52.316;21.166;2023-05-16T06:28:39;17.40;99.90
25208;DHT22;13153;52.316;21.166;2023-05-16T06:31:05;17.20;99.90
25208;DHT22;13153;52.316;21.166;2023-05-16T06:33:30;17.00;99.90
25208;DHT22;13153;52.316;21.166;2023-05-16T06:35:56;16.80;99.90
25208;DHT22;13153;52.316;21.166;2023-05-16T06:38:22;16.70;99.90
25208;DHT22;13153;52.316;21.166;2023-05-16T06:40:48;16.60;99.90
25208;DHT22;13153;52.316;21.166;2023-05-16T06:43:14;16.40;99.90
25208;DHT22;13153;52.316;21.166;2023-05-16T06:45:39;16.40;99.90
25208;DHT22;13153;52.316;21.166;2023-05-16T06:48:07;16.30;99.90
25208;DHT22;13153;52.316;21.166;2023-05-16T06:50:33;16.20;99.90
25208;DHT22;13153;52.316;21.166;2023-05-16T06:53:00;16.10;99.90
25208;DHT22;13153;52.316;21.166;2023-05-16T06:55:26;16.10;99.90
25208;DHT22;13153;52.316;21.166;2023-05-16T06:57:52;16.10;99.90
25208;DHT22;13153;52.316;21.166;2023-05-16T07:00:18;16.10;99.90
25208;DHT22;13153;52.316;21.166;2023-05-16T07:02:44;16.30;99.90
25208;DHT22;13153;52.316;21.166;2023-05-16T07:05:09;16.40;99.90
25208;DHT22;13153;52.316;21.166;2023-05-16T07:07:35;16.50;99.90
25208;DHT22;13153;52.316;21.166;2023-05-16T07:10:02;16.40;99.90
25208;DHT22;13153;52.316;21.166;2023-05-16T07:12:28;16.30;99.90
25208;DHT22;13153;52.316;21.166;2023-05-16T07:14:54;16.20;99.90
25208;DHT22;13153;52.316;21.166;2023-05-16T07:17:19;16.10;99.90
25208;DHT22;13153;52.316;21.166;2023-05-16T07:19:45;16.00;99.90
25208;DHT22;13153;52.316;21.166;2023-05-16T07:22:11;15.90;99.90
25208;DHT22;13153;52.316;21.166;2023-05-16T07:24:37;15.90;99.90
25208;DHT22;13153;52.316;21.166;2023-05-16T07:27:03;15.80;99.90
25208;DHT22;13153;52.316;21.166;2023-05-16T07:29:28;15.80;99.90
25208;DHT22;13153;52.316;21.166;2023-05-16T07:31:55;15.80;99.90
25208;DHT22;13153;52.316;21.166;2023-05-16T07:34:20;15.80;99.90
25208;DHT22;13153;52.316;21.166;2023-05-16T07:36:46;15.90;99.90
25208;DHT22;13153;52.316;21.166;2023-05-16T07:39:12;16.10;99.90
25208;DHT22;13153;52.316;21.166;2023-05-16T07:41:39;16.30;99.90
25208;DHT22;13153;52.316;21.166;2023-05-16T07:44:04;16.70;99.90
25208;DHT22;13153;52.316;21.166;2023-05-16T07:46:30;16.90;99.90
25208;DHT22;13153;52.316;21.166;2023-05-16T07:48:56;17.10;99.90
25208;DHT22;13153;52.316;21.166;2023-05-16T07:51:22;17.10;99.90
25208;DHT22;13153;52.316;21.166;2023-05-16T07:53:47;17.20;99.90
25208;DHT22;13153;52.316;21.166;2023-05-16T07:56:13;17.10;99.90
25208;DHT22;13153;52.316;21.166;2023-05-16T07:58:40;17.20;99.90
25208;DHT22;13153;52.316;21.166;2023-05-16T08:01:06;17.10;99.90
25208;DHT22;13153;52.316;21.166;2023-05-16T08:03:32;17.00;99.90
25208;DHT22;13153;52.316;21.166;2023-05-16T08:05:59;17.00;99.90
25208;DHT22;13153;52.316;21.166;2023-05-16T08:08:25;16.90;99.90
25208;DHT22;13153;52.316;21.166;2023-05-16T08:10:51;16.80;99.90
25208;DHT22;13153;52.316;21.166;2023-05-16T08:13:17;16.80;99.90
25208;DHT22;13153;52.316;21.166;2023-05-16T08:15:42;16.70;99.90
25208;DHT22;13153;52.316;21.166;2023-05-16T08:18:12;16.60;99.90
25208;DHT22;13153;52.316;21.166;2023-05-16T08:20:40;16.60;99.90
25208;DHT22;13153;52.316;21.166;2023-05-16T08:23:07;16.50;99.90
25208;DHT22;13153;52.316;21.166;2023-05-16T08:25:34;16.50;99.90
25208;DHT22;13153;52.316;21.166;2023-05-16T08:28:00;16.50;99.90
25208;DHT22;13153;52.316;21.166;2023-05-16T08:30:27;16.70;99.90
25208;DHT22;13153;52.316;21.166;2023-05-16T08:32:53;16.80;99.90
25208;DHT22;13153;52.316;21.166;2023-05-16T08:35:19;17.00;99.90
25208;DHT22;13153;52.316;21.166;2023-05-16T08:37:44;17.20;99.90
25208;DHT22;13153;52.316;21.166;2023-05-16T08:40:11;17.20;99.90
25208;DHT22;13153;52.316;21.166;2023-05-16T08:42:38;17.40;99.90
25208;DHT22;13153;52.316;21.166;2023-05-16T08:45:06;17.50;99.90
25208;DHT22;13153;52.316;21.166;2023-05-16T08:47:32;17.60;99.90
25208;DHT22;13153;52.316;21.166;2023-05-16T08:50:02;17.60;99.90
25208;DHT22;13153;52.316;21.166;2023-05-16T08:52:31;17.70;99.90
25208;DHT22;13153;52.316;21.166;2023-05-16T08:55:02;17.80;99.90
25208;DHT22;13153;52.316;21.166;2023-05-16T08:57:36;17.90;99.90
25208;DHT22;13153;52.316;21.166;2023-05-16T09:00:03;18.00;99.90
25208;DHT22;13153;52.316;21.166;2023-05-16T09:02:40;18.10;99.90
25208;DHT22;13153;52.316;21.166;2023-05-16T09:05:12;18.30;99.90
25208;DHT22;13153;52.316;21.166;2023-05-16T09:07:40;18.60;99.90
25208;DHT22;13153;52.316;21.166;2023-05-16T09:10:07;18.70;99.90
25208;DHT22;13153;52.316;21.166;2023-05-16T09:12:34;18.70;99.90
25208;DHT22;13153;52.316;21.166;2023-05-16T09:15:04;18.60;99.90
25208;DHT22;13153;52.316;21.166;2023-05-16T09:17:36;18.50;99.90
25208;DHT22;13153;52.316;21.166;2023-05-16T09:20:16;18.40;99.90
25208;DHT22;13153;52.316;21.166;2023-05-16T09:22:57;18.50;99.90
25208;DHT22;13153;52.316;21.166;2023-05-16T09:25:26;18.70;99.90
25208;DHT22;13153;52.316;21.166;2023-05-16T09:27:55;18.90;99.90
25208;DHT22;13153;52.316;21.166;2023-05-16T09:30:29;19.10;99.90
25208;DHT22;13153;52.316;21.166;2023-05-16T09:32:57;19.10;99.90
25208;DHT22;13153;52.316;21.166;2023-05-16T09:35:23;19.20;99.90
25208;DHT22;13153;52.316;21.166;2023-05-16T09:37:50;19.30;99.90
25208;DHT22;13153;52.316;21.166;2023-05-16T09:40:22;19.50;99.90
25208;DHT22;13153;52.316;21.166;2023-05-16T09:43:02;19.50;99.90
25208;DHT22;13153;52.316;21.166;2023-05-16T09:45:30;19.50;99.90
25208;DHT22;13153;52.316;21.166;2023-05-16T09:48:07;19.40;99.90
25208;DHT22;13153;52.316;21.166;2023-05-16T09:50:36;19.30;99.90
25208;DHT22;13153;52.316;21.166;2023-05-16T09:53:02;19.30;99.90
25208;DHT22;13153;52.316;21.166;2023-05-16T09:55:30;19.30;99.90
25208;DHT22;13153;52.316;21.166;2023-05-16T09:57:56;19.30;99.90
25208;DHT22;13153;52.316;21.166;2023-05-16T10:00:31;19.50;99.90
25208;DHT22;13153;52.316;21.166;2023-05-16T10:02:59;19.60;99.90
25208;DHT22;13153;52.316;21.166;2023-05-16T10:05:27;19.70;99.90
25208;DHT22;13153;52.316;21.166;2023-05-16T10:07:57;19.70;99.90
25208;DHT22;13153;52.316;21.166;2023-05-16T10:10:24;19.60;99.90
25208;DHT22;13153;52.316;21.166;2023-05-16T10:12:52;19.50;99.90
25208;DHT22;13153;52.316;21.166;2023-05-16T10:15:19;19.30;99.90
25208;DHT22;13153;52.316;21.166;2023-05-16T10:17:50;19.10;99.90
25208;DHT22;13153;52.316;21.166;2023-05-16T10:20:17;18.90;99.90
25208;DHT22;13153;52.316;21.166;2023-05-16T10:22:46;18.80;99.90
25208;DHT22;13153;52.316;21.166;2023-05-16T10:25:28;18.60;99.90
25208;DHT22;13153;52.316;21.166;2023-05-16T10:28:01;18.50;99.90
25208;DHT22;13153;52.316;21.166;2023-05-16T10:30:28;18.30;99.90
25208;DHT22;13153;52.316;21.166;2023-05-16T10:32:55;18.30;99.90
25208;DHT22;13153;52.316;21.166;2023-05-16T10:35:23;18.30;99.90
25208;DHT22;13153;52.316;21.166;2023-05-16T10:37:49;18.20;99.90
25208;DHT22;13153;52.316;21.166;2023-05-16T10:40:17;18.10;99.90
25208;DHT22;13153;52.316;21.166;2023-05-16T10:43:00;18.10;99.90
25208;DHT22;13153;52.316;21.166;2023-05-16T10:45:27;18.00;99.90
25208;DHT22;13153;52.316;21.166;2023-05-16T10:47:56;17.80;99.90
25208;DHT22;13153;52.316;21.166;2023-05-16T10:50:36;17.60;99.90
25208;DHT22;13153;52.316;21.166;2023-05-16T10:53:32;17.50;99.90
25208;DHT22;13153;52.316;21.166;2023-05-16T11:19:43;18.00;99.90
25208;DHT22;13153;52.316;21.166;2023-05-16T11:22:21;18.00;99.90
25208;DHT22;13153;52.316;21.166;2023-05-16T11:25:01;18.10;99.90
25208;DHT22;13153;52.316;21.166;2023-05-16T11:27:35;18.00;99.90
25208;DHT22;13153;52.316;21.166;2023-05-16T11:32:44;17.90;99.90
25208;DHT22;13153;52.316;21.166;2023-05-16T11:35:15;17.80;99.90
25208;DHT22;13153;52.316;21.166;2023-05-16T11:37:43;17.80;99.90
25208;DHT22;13153;52.316;21.166;2023-05-16T11:40:11;17.70;99.90
25208;DHT22;13153;52.316;21.166;2023-05-16T11:42:46;17.80;99.90
25208;DHT22;13153;52.316;21.166;2023-05-16T11:45:17;17.90;99.90
25208;DHT22;13153;52.316;21.166;2023-05-16T11:47:47;17.90;99.90
25208;DHT22;13153;52.316;21.166;2023-05-16T11:50:18;18.00;99.90
25208;DHT22;13153;52.316;21.166;2023-05-16T11:52:54;18.10;99.90
25208;DHT22;13153;52.316;21.166;2023-05-16T11:55:26;18.30;99.90
25208;DHT22;13153;52.316;21.166;2023-05-16T11:57:56;18.50;99.90
25208;DHT22;13153;52.316;21.166;2023-05-16T12:00:23;18.70;99.90
25208;DHT22;13153;52.316;21.166;2023-05-16T12:02:52;18.70;99.90
25208;DHT22;13153;52.316;21.166;2023-05-16T12:05:20;18.80;99.90
25208;DHT22;13153;52.316;21.166;2023-05-16T12:07:51;18.80;99.90
25208;DHT22;13153;52.316;21.166;2023-05-16T12:10:20;18.80;99.90
25208;DHT22;13153;52.316;21.166;2023-05-16T12:12:48;18.90;99.90
25208;DHT22;13153;52.316;21.166;2023-05-16T12:15:19;19.00;99.90
25208;DHT22;13153;52.316;21.166;2023-05-16T12:17:45;19.00;99.90
25208;DHT22;13153;52.316;21.166;2023-05-16T12:20:14;19.20;99.90
25208;DHT22;13153;52.316;21.166;2023-05-16T12:22:44;19.40;99.90
25208;DHT22;13153;52.316;21.166;2023-05-16T12:25:31;19.40;99.90
25208;DHT22;13153;52.316;21.166;2023-05-16T12:28:02;19.60;99.90
25208;DHT22;13153;52.316;21.166;2023-05-16T12:30:30;19.70;99.90
25208;DHT22;13153;52.316;21.166;2023-05-16T12:32:57;19.80;99.90
25208;DHT22;13153;52.316;21.166;2023-05-16T12:35:32;19.80;99.90
25208;DHT22;13153;52.316;21.166;2023-05-16T12:38:09;19.80;99.90
25208;DHT22;13153;52.316;21.166;2023-05-16T12:40:37;19.90;99.90
25208;DHT22;13153;52.316;21.166;2023-05-16T12:43:15;19.90;99.90
25208;DHT22;13153;52.316;21.166;2023-05-16T12:45:54;19.80;99.90
25208;DHT22;13153;52.316;21.166;2023-05-16T12:48:23;19.80;99.90
25208;DHT22;13153;52.316;21.166;2023-05-16T12:50:54;19.70;99.90
25208;DHT22;13153;52.316;21.166;2023-05-16T12:53:20;19.60;99.90
25208;DHT22;13153;52.316;21.166;2023-05-16T12:55:46;19.50;99.90
25208;DHT22;13153;52.316;21.166;2023-05-16T12:58:12;19.40;99.90
25208;DHT22;13153;52.316;21.166;2023-05-16T13:00:38;19.20;99.90
25208;DHT22;13153;52.316;21.166;2023-05-16T13:03:04;19.10;99.90
25208;DHT22;13153;52.316;21.166;2023-05-16T13:05:32;19.00;99.90
25208;DHT22;13153;52.316;21.166;2023-05-16T13:07:58;18.80;99.90
25208;DHT22;13153;52.316;21.166;2023-05-16T13:10:23;18.80;99.90
25208;DHT22;13153;52.316;21.166;2023-05-16T13:12:51;18.70;99.90
25208;DHT22;13153;52.316;21.166;2023-05-16T13:15:16;18.70;99.90
25208;DHT22;13153;52.316;21.166;2023-05-16T13:17:42;18.70;99.90
25208;DHT22;13153;52.316;21.166;2023-05-16T13:20:09;18.80;99.90
25208;DHT22;13153;52.316;21.166;2023-05-16T13:22:41;18.80;99.90
25208;DHT22;13153;52.316;21.166;2023-05-16T13:25:08;19.00;99.90
25208;DHT22;13153;52.316;21.166;2023-05-16T13:27:35;19.20;99.90
25208;DHT22;13153;52.316;21.166;2023-05-16T13:30:02;19.30;99.90
25208;DHT22;13153;52.316;21.166;2023-05-16T13:32:31;19.40;99.90
25208;DHT22;13153;52.316;21.166;2023-05-16T13:34:57;19.40;99.90
25208;DHT22;13153;52.316;21.166;2023-05-16T13:37:23;19.50;99.90
25208;DHT22;13153;52.316;21.166;2023-05-16T13:39:49;19.50;99.90
25208;DHT22;13153;52.316;21.166;2023-05-16T13:42:15;19.50;99.90
25208;DHT22;13153;52.316;21.166;2023-05-16T13:44:40;19.50;99.90
25208;DHT22;13153;52.316;21.166;2023-05-16T13:47:07;19.50;99.90
25208;DHT22;13153;52.316;21.166;2023-05-16T13:49:33;19.40;99.90
25208;DHT22;13153;52.316;21.166;2023-05-16T13:51:59;19.30;99.90
25208;DHT22;13153;52.316;21.166;2023-05-16T13:54:26;19.30;99.90
25208;DHT22;13153;52.316;21.166;2023-05-16T13:56:52;19.30;99.90
25208;DHT22;13153;52.316;21.166;2023-05-16T13:59:18;19.30;99.90
25208;DHT22;13153;52.316;21.166;2023-05-16T14:01:43;19.30;99.90
25208;DHT22;13153;52.316;21.166;2023-05-16T14:04:09;19.40;99.90
25208;DHT22;13153;52.316;21.166;2023-05-16T14:06:35;19.40;99.90
25208;DHT22;13153;52.316;21.166;2023-05-16T14:09:01;19.50;99.90
25208;DHT22;13153;52.316;21.166;2023-05-16T14:11:27;19.50;99.90
25208;DHT22;13153;52.316;21.166;2023-05-16T14:13:53;19.50;99.90
25208;DHT22;13153;52.316;21.166;2023-05-16T14:16:19;19.50;99.90
25208;DHT22;13153;52.316;21.166;2023-05-16T14:18:45;19.60;99.90
25208;DHT22;13153;52.316;21.166;2023-05-16T14:21:12;19.60;99.90
25208;DHT22;13153;52.316;21.166;2023-05-16T14:23:38;19.60;99.90
25208;DHT22;13153;52.316;21.166;2023-05-16T14:26:04;19.60;99.90
25208;DHT22;13153;52.316;21.166;2023-05-16T14:28:30;19.70;99.90
25208;DHT22;13153;52.316;21.166;2023-05-16T14:30:59;19.70;99.90
25208;DHT22;13153;52.316;21.166;2023-05-16T14:33:26;19.70;99.90
25208;DHT22;13153;52.316;21.166;2023-05-16T14:35:52;19.70;99.90
25208;DHT22;13153;52.316;21.166;2023-05-16T14:38:18;19.60;99.90
25208;DHT22;13153;52.316;21.166;2023-05-16T14:40:45;19.60;99.90
25208;DHT22;13153;52.316;21.166;2023-05-16T14:43:11;19.60;99.90
25208;DHT22;13153;52.316;21.166;2023-05-16T14:45:37;19.60;99.90
25208;DHT22;13153;52.316;21.166;2023-05-16T14:48:06;19.60;99.90
25208;DHT22;13153;52.316;21.166;2023-05-16T14:50:32;19.60;99.90
25208;DHT22;13153;52.316;21.166;2023-05-16T14:52:58;19.60;99.90
25208;DHT22;13153;52.316;21.166;2023-05-16T14:55:24;19.60;99.90
25208;DHT22;13153;52.316;21.166;2023-05-16T14:57:51;19.60;99.90
25208;DHT22;13153;52.316;21.166;2023-05-16T15:00:22;19.50;99.90
25208;DHT22;13153;52.316;21.166;2023-05-16T15:02:49;19.50;99.90
25208;DHT22;13153;52.316;21.166;2023-05-16T15:05:15;19.50;99.90
25208;DHT22;13153;52.316;21.166;2023-05-16T15:07:41;19.50;99.90
25208;DHT22;13153;52.316;21.166;2023-05-16T15:10:08;19.50;99.90
25208;DHT22;13153;52.316;21.166;2023-05-16T15:12:35;19.40;99.90
25208;DHT22;13153;52.316;21.166;2023-05-16T15:15:01;19.40;99.90
25208;DHT22;13153;52.316;21.166;2023-05-16T15:17:27;19.30;99.90
25208;DHT22;13153;52.316;21.166;2023-05-16T15:19:53;19.30;99.90
25208;DHT22;13153;52.316;21.166;2023-05-16T15:22:19;19.30;99.90
25208;DHT22;13153;52.316;21.166;2023-05-16T15:24:45;19.20;99.90
25208;DHT22;13153;52.316;21.166;2023-05-16T15:27:11;19.20;99.90
25208;DHT22;13153;52.316;21.166;2023-05-16T15:29:37;19.20;99.90
25208;DHT22;13153;52.316;21.166;2023-05-16T15:32:04;19.20;99.90
25208;DHT22;13153;52.316;21.166;2023-05-16T15:34:30;19.20;99.90
25208;DHT22;13153;52.316;21.166;2023-05-16T15:36:57;19.20;99.90
25208;DHT22;13153;52.316;21.166;2023-05-16T15:39:23;19.10;99.90
25208;DHT22;13153;52.316;21.166;2023-05-16T15:41:51;19.10;99.90
25208;DHT22;13153;52.316;21.166;2023-05-16T15:44:17;19.00;99.90
25208;DHT22;13153;52.316;21.166;2023-05-16T15:46:43;19.00;99.90
25208;DHT22;13153;52.316;21.166;2023-05-16T15:49:09;18.90;99.90
25208;DHT22;13153;52.316;21.166;2023-05-16T15:51:37;18.90;99.90